createdAt,value
2024-05-09T00:01:06.095Z,101094.56
2024-05-09T00:06:07.305Z,101094.34
2024-05-09T00:11:11.006Z,101094.00
2024-05-09T00:16:11.795Z,101093.75
2024-05-09T00:21:12.558Z,101087.81
2024-05-09T00:26:18.563Z,101079.22
2024-05-09T00:31:19.220Z,101074.00
2024-05-09T00:36:19.873Z,101078.59
2024-05-09T00:41:23.257Z,101069.63
2024-05-09T00:46:24.191Z,101067.09
2024-05-09T00:51:25.234Z,101065.81
2024-05-09T00:56:29.034Z,101060.19
2024-05-09T01:01:29.958Z,101057.75
2024-05-09T01:06:30.808Z,101060.94
2024-05-09T01:11:40.130Z,101057.00
2024-05-09T01:16:41.545Z,101059.09
2024-05-09T01:21:44.373Z,101070.06
2024-05-09T01:26:47.738Z,101064.31
2024-05-09T01:31:48.998Z,101066.47
2024-05-09T01:36:49.737Z,101074.09
2024-05-09T01:41:53.150Z,101081.31
2024-05-09T01:46:53.889Z,101084.94
2024-05-09T01:51:54.579Z,101092.56
2024-05-09T01:56:57.952Z,101083.88
2024-05-09T02:01:58.749Z,101093.69
2024-05-09T02:06:59.585Z,101095.78
2024-05-09T02:12:03.042Z,101099.56
2024-05-09T02:17:04.044Z,101096.63
2024-05-09T02:22:05.290Z,101098.00
2024-05-09T02:27:08.944Z,101101.69
2024-05-09T02:32:10.213Z,101102.94
2024-05-09T02:37:10.911Z,101101.97
2024-05-09T02:42:14.310Z,101097.63
2024-05-09T02:47:15.126Z,101102.94
2024-05-09T02:52:18.324Z,101117.16
2024-05-09T02:57:21.805Z,101123.22
2024-05-09T03:02:22.645Z,101124.97
2024-05-09T03:07:23.382Z,101127.97
2024-05-09T03:12:26.866Z,101134.25
2024-05-09T03:17:28.115Z,101131.41
2024-05-09T03:22:29.131Z,101139.41
2024-05-09T03:27:32.501Z,101153.91
2024-05-09T03:32:33.429Z,101153.13
2024-05-09T03:37:34.248Z,101152.91
2024-05-09T03:42:41.025Z,101161.19
2024-05-09T03:47:41.985Z,101165.03
2024-05-09T03:52:42.883Z,101166.03
2024-05-09T03:57:46.228Z,101179.47
2024-05-09T04:02:49.564Z,101193.53
2024-05-09T04:07:50.385Z,101196.47
2024-05-09T04:12:54.593Z,101195.13
2024-05-09T04:17:55.690Z,101200.16
2024-05-09T04:22:56.706Z,101204.41
2024-05-09T04:28:00.191Z,101217.88
2024-05-09T04:33:01.105Z,101217.22
2024-05-09T04:38:01.997Z,101208.84
2024-05-09T04:43:05.797Z,101214.38
2024-05-09T04:48:07.335Z,101213.09
2024-05-09T04:53:10.178Z,101209.00
2024-05-09T04:58:14.741Z,101214.81
2024-05-09T05:03:17.158Z,101221.06
2024-05-09T05:08:19.877Z,101224.72
2024-05-09T05:13:24.176Z,101223.22
2024-05-09T05:18:25.957Z,101234.53
2024-05-09T05:23:27.230Z,101237.41
2024-05-09T05:28:30.661Z,101239.38
2024-05-09T05:33:31.598Z,101245.53
2024-05-09T05:38:32.459Z,101247.44
2024-05-09T05:43:35.955Z,101256.09
2024-05-09T05:48:37.309Z,101251.84
2024-05-09T05:53:38.183Z,101249.09
2024-05-09T05:58:43.449Z,101250.25
2024-05-09T06:03:44.308Z,101251.38
2024-05-09T06:08:45.357Z,101251.94
2024-05-09T06:13:48.957Z,101252.13
2024-05-09T06:18:49.895Z,101259.78
2024-05-09T06:23:51.011Z,101263.44
2024-05-09T06:28:54.397Z,101251.06
2024-05-09T06:33:56.257Z,101259.91
2024-05-09T06:38:57.587Z,101260.56
2024-05-09T06:44:01.157Z,101260.81
2024-05-09T06:49:04.799Z,101265.81
2024-05-09T06:54:05.709Z,101260.06
2024-05-09T06:59:09.208Z,101251.97
2024-05-09T07:04:10.018Z,101255.78
2024-05-09T07:09:10.738Z,101248.16
2024-05-09T07:14:16.143Z,101252.88
2024-05-09T07:19:17.002Z,101243.78
2024-05-09T07:24:17.913Z,101252.81
2024-05-09T07:29:24.497Z,101255.47
2024-05-09T07:34:25.569Z,101259.94
2024-05-09T07:39:26.313Z,101263.16
2024-05-09T07:44:30.714Z,101265.31
2024-05-09T07:54:36.406Z,101279.03
2024-05-09T07:59:39.904Z,101288.66
2024-05-09T08:04:40.771Z,101291.34
2024-05-09T08:09:41.611Z,101287.78
2024-05-09T08:14:45.015Z,101286.44
2024-05-09T08:19:45.708Z,101292.97
2024-05-09T08:24:47.022Z,101296.53
2024-05-09T08:29:50.533Z,101297.63
2024-05-09T08:34:51.396Z,101302.81
2024-05-09T08:39:52.278Z,101308.00
2024-05-09T08:44:55.808Z,101305.25
2024-05-09T08:49:58.735Z,101300.00
2024-05-09T08:54:59.650Z,101310.41
2024-05-09T09:00:10.311Z,101300.09
2024-05-09T09:05:21.603Z,101295.22
2024-05-09T09:10:29.947Z,101294.13
2024-05-09T09:15:35.702Z,101304.19
2024-05-09T09:20:37.186Z,101296.78
2024-05-09T09:25:42.783Z,101292.59
2024-05-09T09:30:47.486Z,101290.28
2024-05-09T09:35:48.401Z,101287.63
2024-05-09T09:40:50.561Z,101301.53
2024-05-09T09:45:56.110Z,101300.72
2024-05-09T09:50:58.558Z,101297.28
2024-05-09T09:55:59.643Z,101292.44
2024-05-09T10:01:03.157Z,101288.34
2024-05-09T10:06:04.516Z,101285.91
2024-05-09T10:11:07.446Z,101281.66
2024-05-09T10:16:14.774Z,101279.09
2024-05-09T10:21:19.990Z,101277.84
2024-05-09T10:26:20.958Z,101274.75
2024-05-09T10:31:24.533Z,101277.81
2024-05-09T10:36:26.402Z,101283.06
2024-05-09T10:41:27.332Z,101284.66
2024-05-09T10:46:31.226Z,101289.44
2024-05-09T10:51:32.691Z,101285.94
2024-05-09T10:56:33.432Z,101293.06
2024-05-09T11:01:37.160Z,101296.16
2024-05-09T11:06:39.838Z,101299.56
2024-05-09T11:11:40.850Z,101283.72
2024-05-09T11:16:44.541Z,101283.72
2024-05-09T11:21:45.640Z,101283.72
2024-05-09T11:26:46.595Z,101290.38
2024-05-09T11:31:53.019Z,101284.53
2024-05-09T11:36:53.994Z,101280.28
2024-05-09T11:41:54.932Z,101279.25
2024-05-09T11:46:58.650Z,101277.31
2024-05-09T11:51:59.482Z,101280.72
2024-05-09T11:57:00.464Z,101272.84
2024-05-09T12:02:05.087Z,101276.47
2024-05-09T12:07:07.296Z,101272.00
2024-05-09T12:12:09.320Z,101268.38
2024-05-09T12:17:12.918Z,101272.63
2024-05-09T12:22:13.707Z,101264.13
2024-05-09T12:27:14.720Z,101258.06
2024-05-09T12:32:20.187Z,101258.34
2024-05-09T12:37:21.582Z,101255.19
2024-05-09T12:42:27.110Z,101246.34
2024-05-09T12:47:31.977Z,101246.88
2024-05-09T12:52:33.995Z,101245.31
2024-05-09T12:57:34.830Z,101244.97
2024-05-09T13:02:38.465Z,101240.72
2024-05-09T13:07:39.300Z,101244.16
2024-05-09T13:12:40.066Z,101238.84
2024-05-09T13:17:43.618Z,101229.50
2024-05-09T13:22:44.645Z,101232.47
2024-05-09T13:27:45.424Z,101230.31
2024-05-09T13:32:48.903Z,101233.31
2024-05-09T13:37:50.051Z,101227.13
2024-05-09T13:42:50.760Z,101230.75
2024-05-09T13:47:54.345Z,101224.75
2024-05-09T13:52:55.692Z,101219.13
2024-05-09T13:57:56.755Z,101212.84
2024-05-09T14:03:00.307Z,101220.53
2024-05-09T14:08:01.192Z,101223.69
2024-05-09T14:13:02.075Z,101221.66
2024-05-09T14:18:06.606Z,101220.41
2024-05-09T14:23:08.350Z,101222.84
2024-05-09T14:28:10.474Z,101226.69
2024-05-09T14:33:16.473Z,101223.34
2024-05-09T14:38:17.534Z,101224.84
2024-05-09T14:43:18.330Z,101225.13
2024-05-09T14:48:22.682Z,101220.56
2024-05-09T14:53:23.794Z,101220.66
2024-05-09T14:58:24.720Z,101222.03
2024-05-09T15:03:28.222Z,101218.28
2024-05-09T15:08:28.994Z,101210.84
2024-05-09T15:13:29.796Z,101217.50
2024-05-09T15:18:33.878Z,101221.00
2024-05-09T15:23:34.814Z,101223.56
2024-05-09T15:28:35.607Z,101220.66
2024-05-09T15:33:39.908Z,101211.97
2024-05-09T15:38:41.366Z,101197.44
2024-05-09T15:43:42.151Z,101201.31
2024-05-09T15:48:46.043Z,101200.59
2024-05-09T15:53:47.125Z,101199.09
2024-05-09T15:58:48.120Z,101202.94
2024-05-09T16:03:54.225Z,101198.75
2024-05-09T16:08:55.069Z,101207.16
2024-05-09T16:13:55.879Z,101213.25
2024-05-09T16:18:59.640Z,101214.41
2024-05-09T16:24:01.924Z,101217.06
2024-05-09T16:29:02.983Z,101219.41
2024-05-09T16:34:06.640Z,101216.63
2024-05-09T16:39:07.636Z,101223.66
2024-05-09T16:44:08.757Z,101223.53
2024-05-09T16:49:14.762Z,101226.00
2024-05-09T16:54:15.676Z,101225.88
2024-05-09T16:59:17.664Z,101235.56
2024-05-09T17:04:21.351Z,101241.84
2024-05-09T17:09:24.858Z,101236.50
2024-05-09T17:14:25.593Z,101240.25
2024-05-09T17:19:29.157Z,101244.94
2024-05-09T17:24:29.975Z,101242.50
2024-05-09T17:29:31.170Z,101245.59
2024-05-09T17:34:35.144Z,101247.41
2024-05-09T17:39:36.371Z,101250.72
2024-05-09T17:44:37.425Z,101261.56
2024-05-09T17:49:41.468Z,101261.78
2024-05-09T17:54:42.741Z,101267.53
2024-05-09T17:59:43.974Z,101266.03
2024-05-09T18:04:47.511Z,101273.09
2024-05-09T18:09:49.100Z,101271.69
2024-05-09T18:14:50.168Z,101282.84
2024-05-09T18:19:53.676Z,101288.38
2024-05-09T18:24:55.132Z,101291.25
2024-05-09T18:29:58.514Z,101294.88
2024-05-09T18:35:02.440Z,101303.25
2024-05-09T18:45:05.317Z,101319.50
2024-05-09T18:50:14.835Z,101327.28
2024-05-09T18:55:24.214Z,101331.81
2024-05-09T19:00:33.549Z,101342.16
2024-05-09T19:05:41.470Z,101340.25
2024-05-09T19:10:43.120Z,101348.97
2024-05-09T19:15:46.822Z,101364.72
2024-05-09T19:20:52.135Z,101365.44
2024-05-09T19:25:52.832Z,101376.09
2024-05-09T19:30:53.721Z,101375.13
2024-05-09T19:35:57.199Z,101384.91
2024-05-09T19:40:58.050Z,101386.59
2024-05-09T19:45:58.835Z,101384.81
2024-05-09T19:51:02.381Z,101386.59
2024-05-09T19:56:03.347Z,101390.44
2024-05-09T20:01:04.193Z,101400.63
2024-05-09T20:06:07.891Z,101403.97
2024-05-09T20:11:08.682Z,101399.22
2024-05-09T20:16:10.569Z,101410.91
2024-05-09T20:21:13.999Z,101413.56
2024-05-09T20:26:14.655Z,101417.53
2024-05-09T20:31:22.761Z,101412.88
2024-05-09T20:36:26.256Z,101406.06
2024-05-09T20:41:28.004Z,101409.66
2024-05-09T20:46:28.737Z,101416.69
2024-05-09T20:51:32.178Z,101409.44
2024-05-09T20:56:32.998Z,101410.97
2024-05-09T21:01:33.972Z,101411.81
2024-05-09T21:06:37.585Z,101408.31
2024-05-09T21:11:38.490Z,101399.50
2024-05-09T21:16:39.502Z,101407.34
2024-05-09T21:21:45.088Z,101396.72
2024-05-09T21:26:45.752Z,101393.34
2024-05-09T21:31:46.418Z,101392.38
2024-05-09T21:36:49.855Z,101387.06
2024-05-09T21:41:50.567Z,101394.19
2024-05-09T21:46:51.631Z,101388.97
2024-05-09T21:51:55.328Z,101391.63
2024-05-09T21:56:56.033Z,101383.75
2024-05-09T22:01:56.942Z,101382.88
2024-05-09T22:07:00.494Z,101375.88
2024-05-09T22:12:01.353Z,101377.69
2024-05-09T22:17:02.114Z,101384.81
2024-05-09T22:22:05.539Z,101381.41
2024-05-09T22:27:06.770Z,101379.72
2024-05-09T22:32:07.966Z,101376.28
2024-05-09T22:37:11.479Z,101380.75
2024-05-09T22:42:12.256Z,101372.03
2024-05-09T22:47:13.051Z,101366.81
2024-05-09T22:52:18.940Z,101366.91
2024-05-09T22:57:19.672Z,101358.19
2024-05-09T23:02:20.495Z,101359.03
2024-05-09T23:07:23.972Z,101358.19
2024-05-09T23:12:24.673Z,101352.88
2024-05-09T23:17:25.548Z,101353.72
2024-05-09T23:22:29.002Z,101359.03
2024-05-09T23:27:29.670Z,101355.44
2024-05-09T23:32:30.441Z,101352.88
2024-05-09T23:37:33.882Z,101347.66
2024-05-09T23:42:34.637Z,101353.19
2024-05-09T23:47:35.415Z,101350.69
2024-05-09T23:52:39.070Z,101347.28
2024-05-09T23:57:39.830Z,101342.94
